Chenega Bay, Alaska
Current Conditions -  °F | °C
As of 3:53 PM on Wednesday 22 Oct 2014 (Local Time) from PACV Reporting Station
Broken Clouds Broken Clouds  
Wind Chill: 46°   Ceiling: 20000
Heat Index: 48°   Visibility: 10mi
Dew Point: 31°   Wind: 5mph
Humidity: 52%   Direction: 240°WSW
Pressure: 29.25"   Gusts: NA
Location:  60.5501°N, 145.751°W
Report Text: PACV 222353Z 24004KT 10SM FEW060 SCT080 BKN200 09/M01 A2925 RMK AO2 SLP906 T00891006 10100 21017 51017
Loading
Personal Weather Stations






























Interactive Weather Map
Tropical Storm Tracking
New forecast layout! Learn more

10-Day Weather Forecast

Advertisements
Track Severe Weather on mobile